createdAt,value
2018-11-12T00:02:08.218Z,10.21
2018-11-12T00:07:11.612Z,10.17
2018-11-12T00:12:15.053Z,10.13
2018-11-12T00:17:18.528Z,10.11
2018-11-12T00:22:21.948Z,10.08
2018-11-12T00:27:26.146Z,10.04
2018-11-12T00:32:29.577Z,10.04
2018-11-12T00:37:32.920Z,9.97
2018-11-12T00:42:36.458Z,10.03
2018-11-12T00:47:39.836Z,9.91
2018-11-12T00:52:43.318Z,9.83
2018-11-12T00:57:46.999Z,9.93
2018-11-12T01:02:51.113Z,9.87
2018-11-12T01:07:54.539Z,9.94
2018-11-12T01:12:58.012Z,9.95
2018-11-12T01:18:01.392Z,9.85
2018-11-12T01:23:04.769Z,10.09
2018-11-12T01:28:08.301Z,9.91
2018-11-12T01:33:11.725Z,9.99
2018-11-12T01:38:15.134Z,9.96
2018-11-12T01:43:18.524Z,9.98
2018-11-12T01:48:22.374Z,10.07
2018-11-12T01:53:25.766Z,10.15
2018-11-12T01:58:29.174Z,10.17
2018-11-12T02:03:32.547Z,10.04
2018-11-12T02:08:35.946Z,10.08
2018-11-12T02:13:39.346Z,10.12
2018-11-12T02:18:42.720Z,10.03
2018-11-12T02:23:46.171Z,10.19
2018-11-12T02:28:49.543Z,10.21
2018-11-12T02:33:52.938Z,10.04
2018-11-12T02:38:56.402Z,9.97
2018-11-12T02:43:59.827Z,9.98
2018-11-12T02:49:03.251Z,9.94
2018-11-12T02:54:06.758Z,9.99
2018-11-12T02:59:10.148Z,10.09
2018-11-12T03:04:13.933Z,10.03
2018-11-12T03:09:17.296Z,9.98
2018-11-12T03:14:20.670Z,9.96
2018-11-12T03:19:24.043Z,9.86
2018-11-12T03:24:27.412Z,9.94
2018-11-12T03:29:30.773Z,10.06
2018-11-12T03:34:34.177Z,9.99
2018-11-12T03:39:37.603Z,10.08
2018-11-12T03:44:40.973Z,9.99
2018-11-12T03:49:44.332Z,9.98
2018-11-12T03:54:47.684Z,10.00
2018-11-12T03:59:51.114Z,9.99
2018-11-12T04:04:54.515Z,9.97
2018-11-12T04:09:58.095Z,9.96
2018-11-12T04:15:01.533Z,9.89
2018-11-12T04:20:05.214Z,9.77
2018-11-12T04:25:10.077Z,9.82
2018-11-12T04:30:14.947Z,9.75
2018-11-12T04:35:18.324Z,9.82
2018-11-12T04:40:21.727Z,9.69
2018-11-12T04:45:25.868Z,9.72
2018-11-12T04:50:29.612Z,9.68
2018-11-12T04:55:32.988Z,9.72
2018-11-12T05:00:36.944Z,9.67
2018-11-12T05:05:40.325Z,9.57
2018-11-12T05:10:43.751Z,9.62
2018-11-12T05:15:48.066Z,9.60
2018-11-12T05:20:51.480Z,9.61
2018-11-12T05:25:54.856Z,9.55
2018-11-12T05:30:58.261Z,9.58
2018-11-12T05:36:01.886Z,9.60
2018-11-12T05:41:05.521Z,9.52
2018-11-12T05:46:10.292Z,9.67
2018-11-12T05:51:13.654Z,10.58
2018-11-12T05:56:17.114Z,9.90
2018-11-12T06:01:20.782Z,9.79
2018-11-12T06:06:24.232Z,9.77
2018-11-12T06:11:27.639Z,9.73
2018-11-12T06:16:31.002Z,9.83
2018-11-12T06:21:34.414Z,9.77
2018-11-12T06:26:37.878Z,9.74
2018-11-12T06:31:41.474Z,9.73
2018-11-12T06:36:45.017Z,9.78
2018-11-12T06:41:48.463Z,9.70
2018-11-12T06:46:52.871Z,9.71
2018-11-12T06:51:56.256Z,9.70
2018-11-12T06:57:00.310Z,9.69
2018-11-12T07:02:03.735Z,9.73
2018-11-12T07:07:07.382Z,9.71
2018-11-12T07:12:10.791Z,9.85
2018-11-12T07:17:14.168Z,9.91
2018-11-12T07:22:17.587Z,9.95
2018-11-12T07:27:20.998Z,9.91
2018-11-12T07:32:24.454Z,10.00
2018-11-12T07:37:35.128Z,9.95
2018-11-12T07:42:39.263Z,9.93
2018-11-12T07:47:43.549Z,10.05
2018-11-12T07:52:47.057Z,10.01
2018-11-12T07:57:51.626Z,10.11
2018-11-12T08:03:00.071Z,10.16
2018-11-12T08:08:03.444Z,10.35
2018-11-12T08:13:07.085Z,10.31
2018-11-12T08:18:10.531Z,10.49
2018-11-12T08:23:13.931Z,10.61
2018-11-12T08:28:17.298Z,10.54
2018-11-12T08:33:21.584Z,10.53
2018-11-12T08:38:24.958Z,10.63
2018-11-12T08:43:28.355Z,10.56
2018-11-12T08:48:31.847Z,10.46
2018-11-12T08:53:36.934Z,10.45
2018-11-12T08:58:40.370Z,10.63
2018-11-12T09:03:43.815Z,10.51
2018-11-12T09:08:47.677Z,10.54
2018-11-12T09:13:51.122Z,10.53
2018-11-12T09:18:54.563Z,10.65
2018-11-12T09:23:58.217Z,10.70
2018-11-12T09:29:02.023Z,10.78
2018-11-12T09:34:05.827Z,10.89
2018-11-12T09:39:13.662Z,11.02
2018-11-12T09:44:17.097Z,11.05
2018-11-12T09:49:20.759Z,11.18
2018-11-12T09:54:24.882Z,11.12
2018-11-12T09:59:28.385Z,11.16
2018-11-12T10:04:32.852Z,11.30
2018-11-12T10:09:36.895Z,11.43
2018-11-12T10:14:41.937Z,11.53
2018-11-12T10:19:42.890Z,11.58
2018-11-12T10:24:46.286Z,11.66
2018-11-12T10:29:49.716Z,11.72
2018-11-12T10:34:53.053Z,11.95
2018-11-12T10:39:56.458Z,11.98
2018-11-12T10:44:59.869Z,12.15
2018-11-12T10:50:03.482Z,12.25
2018-11-12T10:55:08.858Z,12.44
2018-11-12T11:00:18.992Z,12.36
2018-11-12T11:05:22.687Z,12.55
2018-11-12T11:10:27.250Z,12.68
2018-11-12T11:15:31.191Z,12.47
2018-11-12T11:20:34.636Z,12.56
2018-11-12T11:25:38.685Z,12.57
2018-11-12T11:30:42.053Z,12.51
2018-11-12T11:35:45.514Z,12.49
2018-11-12T11:40:48.970Z,12.35
2018-11-12T11:45:52.377Z,12.33
2018-11-12T11:50:55.886Z,12.37
2018-11-12T11:55:59.278Z,12.23
2018-11-12T12:01:02.743Z,12.09
2018-11-12T12:06:06.384Z,12.05
2018-11-12T12:11:09.785Z,12.20
2018-11-12T12:16:13.237Z,11.96
2018-11-12T12:21:16.702Z,11.98
2018-11-12T12:26:20.109Z,11.94
2018-11-12T12:31:23.543Z,12.01
2018-11-12T12:36:27.025Z,12.11
2018-11-12T12:41:30.372Z,12.11
2018-11-12T12:46:33.784Z,11.94
2018-11-12T12:51:37.307Z,11.93
2018-11-12T12:56:40.666Z,11.99
2018-11-12T13:01:44.235Z,11.99
2018-11-12T13:06:47.511Z,11.90
2018-11-12T13:11:50.892Z,11.90
2018-11-12T13:16:55.176Z,11.85
2018-11-12T13:21:58.558Z,11.80
2018-11-12T13:27:01.955Z,11.81
2018-11-12T13:32:05.350Z,11.84
2018-11-12T13:37:08.716Z,11.82
2018-11-12T13:42:12.087Z,11.80
2018-11-12T13:47:15.474Z,11.84
2018-11-12T13:52:18.850Z,11.83
2018-11-12T13:57:22.228Z,11.84
2018-11-12T14:02:25.602Z,11.82
2018-11-12T14:07:29.031Z,11.77
2018-11-12T14:12:33.058Z,11.78
2018-11-12T14:17:36.503Z,11.69
2018-11-12T14:22:40.446Z,11.72
2018-11-12T14:27:44.334Z,11.70
2018-11-12T14:32:47.701Z,11.65
2018-11-12T14:37:51.091Z,11.59
2018-11-12T14:42:54.574Z,11.56
2018-11-12T14:47:58.335Z,11.49
2018-11-12T14:53:01.703Z,11.46
2018-11-12T14:58:05.125Z,11.45
2018-11-12T15:03:08.505Z,11.39
2018-11-12T15:08:11.899Z,11.36
2018-11-12T15:13:16.066Z,11.31
2018-11-12T15:18:19.486Z,11.32
2018-11-12T15:23:22.921Z,11.26
2018-11-12T15:28:26.371Z,11.21
2018-11-12T15:33:29.810Z,11.20
2018-11-12T15:38:33.299Z,11.13
2018-11-12T15:43:36.686Z,11.10
2018-11-12T15:48:40.117Z,11.05
2018-11-12T15:53:44.108Z,10.99
2018-11-12T15:58:47.624Z,10.99
2018-11-12T16:03:51.032Z,11.03
2018-11-12T16:08:54.430Z,11.01
2018-11-12T16:13:57.883Z,11.01
2018-11-12T16:19:02.114Z,10.98
2018-11-12T16:24:06.675Z,11.01
2018-11-12T16:29:10.805Z,11.06
2018-11-12T16:34:14.161Z,11.06
2018-11-12T16:39:17.545Z,11.10
2018-11-12T16:44:20.954Z,11.07
2018-11-12T16:49:24.393Z,11.10
2018-11-12T16:54:27.812Z,11.18
2018-11-12T16:59:31.244Z,11.13
2018-11-12T17:04:34.745Z,11.11
2018-11-12T17:09:38.288Z,11.08
2018-11-12T17:14:41.892Z,11.06
2018-11-12T17:19:45.298Z,11.09
2018-11-12T17:24:48.798Z,11.05
2018-11-12T17:29:52.241Z,11.06
2018-11-12T17:34:55.721Z,11.03
2018-11-12T17:39:59.232Z,11.06
2018-11-12T17:45:03.288Z,11.07
2018-11-12T17:50:07.841Z,10.98
2018-11-12T17:55:12.070Z,10.89
2018-11-12T18:00:18.681Z,10.90
2018-11-12T18:05:22.099Z,10.79
2018-11-12T18:10:25.619Z,10.86
2018-11-12T18:15:29.368Z,10.84
2018-11-12T18:20:32.782Z,10.81
2018-11-12T18:25:36.176Z,10.79
2018-11-12T18:30:39.751Z,10.79
2018-11-12T18:35:42.951Z,10.77
2018-11-12T18:40:46.398Z,10.86
2018-11-12T18:45:49.777Z,10.86
2018-11-12T18:50:53.270Z,10.89
2018-11-12T18:55:56.652Z,10.93
2018-11-12T19:01:00.067Z,10.92
2018-11-12T19:06:03.495Z,10.91
2018-11-12T19:11:07.304Z,10.85
2018-11-12T19:16:10.769Z,10.82
2018-11-12T19:21:14.327Z,10.80
2018-11-12T19:26:17.798Z,10.81
2018-11-12T19:31:21.247Z,10.78
2018-11-12T19:36:24.674Z,10.83
2018-11-12T19:41:28.150Z,10.74
2018-11-12T19:46:31.671Z,10.78
2018-11-12T19:51:35.227Z,10.74
2018-11-12T19:56:38.644Z,10.74
2018-11-12T20:01:42.059Z,10.75
2018-11-12T20:06:45.431Z,10.76
2018-11-12T20:11:48.814Z,10.72
2018-11-12T20:16:52.262Z,10.68
2018-11-12T20:21:55.709Z,10.65
2018-11-12T20:26:59.065Z,10.72
2018-11-12T20:32:02.545Z,10.67
2018-11-12T20:37:06.089Z,10.72
2018-11-12T20:42:09.436Z,10.77
2018-11-12T20:47:12.958Z,10.73
2018-11-12T20:52:16.574Z,10.89
2018-11-12T20:57:19.937Z,10.67
2018-11-12T21:02:23.959Z,10.67
2018-11-12T21:07:27.484Z,10.71
2018-11-12T21:12:30.874Z,10.67
2018-11-12T21:17:34.329Z,10.77
2018-11-12T21:22:37.722Z,10.75
2018-11-12T21:27:41.133Z,10.72
2018-11-12T21:32:44.576Z,10.77
2018-11-12T21:37:48.661Z,10.87
2018-11-12T21:42:52.135Z,10.88
2018-11-12T21:47:55.551Z,10.91
2018-11-12T21:52:59.064Z,10.84
2018-11-12T21:58:02.473Z,10.92
2018-11-12T22:03:06.239Z,10.89
2018-11-12T22:08:09.714Z,10.96
2018-11-12T22:13:13.335Z,10.92
2018-11-12T22:18:16.800Z,10.91
2018-11-12T22:23:20.179Z,10.97
2018-11-12T22:28:23.761Z,10.96
2018-11-12T22:33:27.194Z,11.02
2018-11-12T22:38:30.593Z,10.96
2018-11-12T22:43:34.074Z,10.95
2018-11-12T22:48:37.470Z,11.05
2018-11-12T22:53:41.046Z,11.06
2018-11-12T22:58:44.435Z,11.04
2018-11-12T23:03:47.860Z,11.11
2018-11-12T23:08:51.299Z,11.04
2018-11-12T23:13:54.686Z,11.07
2018-11-12T23:18:58.067Z,11.09
2018-11-12T23:24:01.504Z,11.04
2018-11-12T23:29:04.957Z,11.06
2018-11-12T23:34:08.349Z,11.05
2018-11-12T23:39:11.779Z,11.03
2018-11-12T23:44:15.161Z,11.02
2018-11-12T23:49:18.590Z,11.05
2018-11-12T23:54:21.993Z,10.96
2018-11-12T23:59:25.355Z,10.94
